createdAt,value
2022-10-04T00:00:34.073Z,8.30
2022-10-04T00:01:34.066Z,8.28
2022-10-04T00:02:34.072Z,8.30
2022-10-04T00:03:33.907Z,8.41
2022-10-04T00:04:33.873Z,8.30
2022-10-04T00:05:33.796Z,8.33
2022-10-04T00:06:33.737Z,8.33
2022-10-04T00:07:33.682Z,8.30
2022-10-04T00:08:33.624Z,8.31
2022-10-04T00:09:33.568Z,8.36
2022-10-04T00:10:33.540Z,8.33
2022-10-04T00:11:33.456Z,8.28
2022-10-04T00:12:33.401Z,8.27
2022-10-04T00:13:33.346Z,8.26
2022-10-04T00:14:33.295Z,8.19
2022-10-04T00:15:33.256Z,8.20
2022-10-04T00:16:33.258Z,8.19
2022-10-04T00:17:33.127Z,8.18
2022-10-04T00:18:33.069Z,8.13
2022-10-04T00:19:33.013Z,8.12
2022-10-04T00:20:32.983Z,8.10
2022-10-04T00:21:32.899Z,8.09
2022-10-04T00:22:32.844Z,8.08
2022-10-04T00:23:32.786Z,8.08
2022-10-04T00:24:32.733Z,8.08
2022-10-04T00:25:32.677Z,8.09
2022-10-04T00:26:32.641Z,8.05
2022-10-04T00:27:32.572Z,8.01
2022-10-04T00:28:32.621Z,8.01
2022-10-04T00:29:32.475Z,8.03
2022-10-04T00:30:32.466Z,8.00
2022-10-04T00:31:32.514Z,7.98
2022-10-04T00:32:32.288Z,8.01
2022-10-04T00:33:32.230Z,8.00
2022-10-04T00:34:32.173Z,7.93
2022-10-04T00:35:32.167Z,7.97
2022-10-04T00:36:32.080Z,7.94
2022-10-04T00:37:32.006Z,8.03
2022-10-04T00:38:32.053Z,7.93
2022-10-04T00:39:31.894Z,7.95
2022-10-04T00:40:31.836Z,7.91
2022-10-04T00:41:31.850Z,7.93
2022-10-04T00:42:31.730Z,7.90
2022-10-04T00:43:31.672Z,7.90
2022-10-04T00:44:31.612Z,7.87
2022-10-04T00:45:31.563Z,7.91
2022-10-04T00:46:31.619Z,7.90
2022-10-04T00:47:31.476Z,7.93
2022-10-04T00:48:31.720Z,7.93
2022-10-04T00:49:31.340Z,7.93
2022-10-04T00:50:31.276Z,7.87
2022-10-04T00:51:31.233Z,7.93
2022-10-04T00:52:32.632Z,7.88
2022-10-04T00:53:32.190Z,7.88
2022-10-04T00:54:31.052Z,7.88
2022-10-04T00:55:30.999Z,7.97
2022-10-04T00:56:30.944Z,7.91
2022-10-04T00:57:30.887Z,7.88
2022-10-04T00:58:30.829Z,7.91
2022-10-04T00:59:30.800Z,7.91
2022-10-04T01:00:30.725Z,8.03
2022-10-04T01:01:30.706Z,7.95
2022-10-04T01:02:30.653Z,7.97
2022-10-04T01:03:30.551Z,7.93
2022-10-04T01:04:30.494Z,7.93
2022-10-04T01:05:30.534Z,7.97
2022-10-04T01:06:30.665Z,7.88
2022-10-04T01:07:30.325Z,7.88
2022-10-04T01:08:30.268Z,7.88
2022-10-04T01:09:30.217Z,7.85
2022-10-04T01:10:30.311Z,7.80
2022-10-04T01:11:30.280Z,7.95
2022-10-04T01:12:30.043Z,7.82
2022-10-04T01:13:30.029Z,7.91
2022-10-04T01:14:29.991Z,7.88
2022-10-04T01:15:30.054Z,7.85
2022-10-04T01:16:29.931Z,7.90
2022-10-04T01:17:29.763Z,7.77
2022-10-04T01:18:29.807Z,7.91
2022-10-04T01:19:29.674Z,7.79
2022-10-04T01:20:29.597Z,7.91
2022-10-04T01:21:29.561Z,7.76
2022-10-04T01:22:29.489Z,7.80
2022-10-04T01:23:29.431Z,7.88
2022-10-04T01:24:29.379Z,7.88
2022-10-04T01:25:29.382Z,7.88
2022-10-04T01:26:29.514Z,7.90
2022-10-04T01:27:29.205Z,7.90
2022-10-04T01:28:29.209Z,7.85
2022-10-04T01:29:29.095Z,7.90
2022-10-04T01:30:29.038Z,7.82
2022-10-04T01:31:29.042Z,7.80
2022-10-04T01:32:28.962Z,7.93
2022-10-04T01:33:28.870Z,7.82
2022-10-04T01:34:28.815Z,7.82
2022-10-04T01:35:28.757Z,7.93
2022-10-04T01:36:28.706Z,7.88
2022-10-04T01:37:28.642Z,7.98
2022-10-04T01:38:28.617Z,7.97
2022-10-04T01:39:28.552Z,7.94
2022-10-04T01:40:28.473Z,7.97
2022-10-04T01:41:28.420Z,8.00
2022-10-04T01:42:28.363Z,8.03
2022-10-04T01:43:28.318Z,8.06
2022-10-04T01:44:28.338Z,8.00
2022-10-04T01:45:29.143Z,8.03
2022-10-04T01:46:28.285Z,8.03
2022-10-04T01:47:28.190Z,8.03
2022-10-04T01:48:28.028Z,8.01
2022-10-04T01:49:28.004Z,7.98
2022-10-04T01:50:27.943Z,8.00
2022-10-04T01:51:27.856Z,7.97
2022-10-04T01:52:27.801Z,7.97
2022-10-04T01:53:27.753Z,7.95
2022-10-04T01:54:27.689Z,7.91
2022-10-04T01:55:27.633Z,7.88
2022-10-04T01:56:27.605Z,7.91
2022-10-04T01:57:27.524Z,7.87
2022-10-04T01:58:27.465Z,7.88
2022-10-04T01:59:27.410Z,7.79
2022-10-04T02:00:27.352Z,7.88
2022-10-04T02:01:27.329Z,7.90
2022-10-04T02:02:27.268Z,7.85
2022-10-04T02:03:27.186Z,7.90
2022-10-04T02:04:27.183Z,7.83
2022-10-04T02:05:27.074Z,7.85
2022-10-04T02:06:27.017Z,7.93
2022-10-04T02:07:28.647Z,7.73
2022-10-04T02:08:26.927Z,7.82
2022-10-04T02:09:26.858Z,7.79
2022-10-04T02:10:26.792Z,7.76
2022-10-04T02:11:26.733Z,7.76
2022-10-04T02:12:26.680Z,7.76
2022-10-04T02:13:26.622Z,7.79
2022-10-04T02:14:26.595Z,7.79
2022-10-04T02:15:26.511Z,7.91
2022-10-04T02:16:26.551Z,7.87
2022-10-04T02:17:26.467Z,7.88
2022-10-04T02:18:26.416Z,7.93
2022-10-04T02:19:26.288Z,7.91
2022-10-04T02:20:26.249Z,7.91
2022-10-04T02:21:26.180Z,7.98
2022-10-04T02:22:26.117Z,8.00
2022-10-04T02:23:26.060Z,8.03
2022-10-04T02:24:26.012Z,8.05
2022-10-04T02:25:25.972Z,7.97
2022-10-04T02:26:25.894Z,7.94
2022-10-04T02:27:25.837Z,7.95
2022-10-04T02:28:25.843Z,7.93
2022-10-04T02:29:25.728Z,7.93
2022-10-04T02:30:25.721Z,7.97
2022-10-04T02:31:25.667Z,7.88
2022-10-04T02:32:25.556Z,7.90
2022-10-04T02:33:25.499Z,7.80
2022-10-04T02:34:25.443Z,7.80
2022-10-04T02:35:25.386Z,7.88
2022-10-04T02:36:25.360Z,7.88
2022-10-04T02:37:25.275Z,7.82
2022-10-04T02:38:25.221Z,7.88
2022-10-04T02:39:25.163Z,7.83
2022-10-04T02:40:25.106Z,7.87
2022-10-04T02:41:25.050Z,7.91
2022-10-04T02:42:25.020Z,7.83
2022-10-04T02:43:24.938Z,7.82
2022-10-04T02:44:24.881Z,7.90
2022-10-04T02:45:24.824Z,7.85
2022-10-04T02:46:24.797Z,7.87
2022-10-04T02:47:24.716Z,7.82
2022-10-04T02:48:24.711Z,7.83
2022-10-04T02:49:24.599Z,7.87
2022-10-04T02:50:24.543Z,7.76
2022-10-04T02:51:24.490Z,7.76
2022-10-04T02:52:24.430Z,7.75
2022-10-04T02:53:24.381Z,7.70
2022-10-04T02:54:24.339Z,7.79
2022-10-04T02:55:24.261Z,7.79
2022-10-04T02:56:24.206Z,7.87
2022-10-04T02:57:24.148Z,7.83
2022-10-04T02:58:24.092Z,7.85
2022-10-04T02:59:24.071Z,7.88
2022-10-04T03:00:33.743Z,7.94
2022-10-04T03:01:23.945Z,7.95
2022-10-04T03:02:29.521Z,7.91
2022-10-04T03:03:23.809Z,7.88
2022-10-04T03:04:23.754Z,7.85
2022-10-04T03:05:23.729Z,7.88
2022-10-04T03:06:23.640Z,7.87
2022-10-04T03:07:23.585Z,7.82
2022-10-04T03:08:23.537Z,7.76
2022-10-04T03:09:28.792Z,7.85
2022-10-04T03:10:23.449Z,7.93
2022-10-04T03:11:23.382Z,7.94
2022-10-04T03:12:23.320Z,7.98
2022-10-04T03:13:23.247Z,8.03
2022-10-04T03:14:23.196Z,7.98
2022-10-04T03:15:23.135Z,8.06
2022-10-04T03:16:23.184Z,8.01
2022-10-04T03:17:23.040Z,7.97
2022-10-04T03:18:22.967Z,7.98
2022-10-04T03:19:22.908Z,7.94
2022-10-04T03:20:22.853Z,7.95
2022-10-04T03:21:22.835Z,7.87
2022-10-04T03:22:22.742Z,7.85
2022-10-04T03:23:22.686Z,7.88
2022-10-04T03:24:22.627Z,7.75
2022-10-04T03:25:22.575Z,7.79
2022-10-04T03:26:22.515Z,7.82
2022-10-04T03:27:22.486Z,7.77
2022-10-04T03:28:22.556Z,7.77
2022-10-04T03:29:22.346Z,7.76
2022-10-04T03:30:22.293Z,7.69
2022-10-04T03:31:22.283Z,7.72
2022-10-04T03:32:22.181Z,7.80
2022-10-04T03:33:22.138Z,7.91
2022-10-04T03:34:22.094Z,7.75
2022-10-04T03:35:22.009Z,7.88
2022-10-04T03:36:21.951Z,7.88
2022-10-04T03:37:21.893Z,7.87
2022-10-04T03:38:21.865Z,7.94
2022-10-04T03:39:21.783Z,7.80
2022-10-04T03:40:21.723Z,7.82
2022-10-04T03:41:21.678Z,7.73
2022-10-04T03:42:21.625Z,7.88
2022-10-04T03:43:21.556Z,7.77
2022-10-04T03:44:21.519Z,7.73
2022-10-04T03:45:21.444Z,7.80
2022-10-04T03:46:21.387Z,7.80
2022-10-04T03:47:21.328Z,7.79
2022-10-04T03:48:21.275Z,7.75
2022-10-04T03:49:21.248Z,7.77
2022-10-04T03:50:21.163Z,7.76
2022-10-04T03:51:21.105Z,7.79
2022-10-04T03:52:21.070Z,7.82
2022-10-04T03:53:20.993Z,7.82
2022-10-04T03:54:20.938Z,7.88
2022-10-04T03:55:20.897Z,7.83
2022-10-04T03:56:20.839Z,7.91
2022-10-04T03:57:20.767Z,7.90
2022-10-04T03:58:20.708Z,7.91
2022-10-04T03:59:20.662Z,7.97
2022-10-04T04:00:20.622Z,8.03
2022-10-04T04:01:20.658Z,7.97
2022-10-04T04:02:20.528Z,8.08
2022-10-04T04:03:20.443Z,8.06
2022-10-04T04:04:20.371Z,8.12
2022-10-04T04:05:20.324Z,8.12
2022-10-04T04:06:20.283Z,8.18
2022-10-04T04:07:20.203Z,8.12
2022-10-04T04:08:20.151Z,8.10
2022-10-04T04:09:20.093Z,8.10
2022-10-04T04:10:20.075Z,8.18
2022-10-04T04:11:19.996Z,8.16
2022-10-04T04:12:19.922Z,8.15
2022-10-04T04:13:19.868Z,8.18
2022-10-04T04:14:19.814Z,8.15
2022-10-04T04:15:19.754Z,8.18
2022-10-04T04:16:19.767Z,8.15
2022-10-04T04:17:19.641Z,8.19
2022-10-04T04:18:19.602Z,8.18
2022-10-04T04:19:19.531Z,8.19
2022-10-04T04:20:19.483Z,8.18
2022-10-04T04:21:19.434Z,8.23
2022-10-04T04:22:19.357Z,8.15
2022-10-04T04:23:19.303Z,8.18
2022-10-04T04:24:19.247Z,8.20
2022-10-04T04:25:19.190Z,8.27
2022-10-04T04:26:19.167Z,8.19
2022-10-04T04:27:19.077Z,8.24
2022-10-04T04:28:19.102Z,8.19
2022-10-04T04:29:18.968Z,8.18
2022-10-04T04:30:18.912Z,8.26
2022-10-04T04:31:18.933Z,8.18
2022-10-04T04:32:18.799Z,8.23
2022-10-04T04:33:21.048Z,8.28
2022-10-04T04:34:18.683Z,8.28
2022-10-04T04:35:18.631Z,8.24
2022-10-04T04:36:18.594Z,8.31
2022-10-04T04:37:18.517Z,8.36
2022-10-04T04:38:18.459Z,8.31
2022-10-04T04:39:18.400Z,8.31
2022-10-04T04:40:18.346Z,8.31
2022-10-04T04:41:18.310Z,8.31
2022-10-04T04:42:18.239Z,8.30
2022-10-04T04:43:18.176Z,8.34
2022-10-04T04:44:18.128Z,8.34
2022-10-04T04:45:18.073Z,8.31
2022-10-04T04:46:29.451Z,8.30
2022-10-04T04:47:18.293Z,8.37
2022-10-04T04:48:17.896Z,8.31
2022-10-04T04:49:17.845Z,8.33
2022-10-04T04:50:17.787Z,8.33
2022-10-04T04:51:17.728Z,8.31
2022-10-04T04:52:17.755Z,8.30
2022-10-04T04:53:17.619Z,8.30
2022-10-04T04:54:17.569Z,8.38
2022-10-04T04:55:17.508Z,8.38
2022-10-04T04:56:18.175Z,8.33
2022-10-04T04:57:17.394Z,8.38
2022-10-04T04:58:17.357Z,8.45
2022-10-04T04:59:17.281Z,8.42
2022-10-04T05:00:17.226Z,8.42
2022-10-04T05:01:17.223Z,8.42
2022-10-04T05:02:17.164Z,8.45
2022-10-04T05:03:17.075Z,8.42
2022-10-04T05:04:17.023Z,8.44
2022-10-04T05:05:16.952Z,8.42
2022-10-04T05:06:16.886Z,8.44
2022-10-04T05:07:16.832Z,8.49
2022-10-04T05:08:16.799Z,8.42
2022-10-04T05:09:16.729Z,8.48
2022-10-04T05:10:16.667Z,8.55
2022-10-04T05:11:16.611Z,8.52
2022-10-04T05:12:16.552Z,8.53
2022-10-04T05:13:16.495Z,8.52
2022-10-04T05:14:16.459Z,8.58
2022-10-04T05:15:16.384Z,8.63
2022-10-04T05:16:16.396Z,8.53
2022-10-04T05:17:16.270Z,8.70
2022-10-04T05:18:16.222Z,8.69
2022-10-04T05:19:16.182Z,8.69
2022-10-04T05:20:16.106Z,8.73
2022-10-04T05:21:16.047Z,8.70
2022-10-04T05:22:15.992Z,8.64
2022-10-04T05:23:15.935Z,8.66
2022-10-04T05:24:15.911Z,8.76
2022-10-04T05:25:15.823Z,8.67
2022-10-04T05:26:15.768Z,8.70
2022-10-04T05:27:15.710Z,8.71
2022-10-04T05:28:15.699Z,8.66
2022-10-04T05:29:15.599Z,8.66
2022-10-04T05:30:15.560Z,8.69
2022-10-04T05:31:15.546Z,8.70
2022-10-04T05:32:15.430Z,8.69
2022-10-04T05:33:15.374Z,8.71
2022-10-04T05:34:15.318Z,8.64
2022-10-04T05:35:15.282Z,8.76
2022-10-04T05:36:15.207Z,8.74
2022-10-04T05:37:15.152Z,8.66
2022-10-04T05:38:15.093Z,8.74
2022-10-04T05:39:15.059Z,8.66
2022-10-04T05:40:15.010Z,8.67
2022-10-04T05:41:14.927Z,8.73
2022-10-04T05:42:14.871Z,8.79
2022-10-04T05:43:14.818Z,8.81
2022-10-04T05:44:14.757Z,8.81
2022-10-04T05:45:14.722Z,8.82
2022-10-04T05:46:14.718Z,8.81
2022-10-04T05:47:14.592Z,8.79
2022-10-04T05:48:14.535Z,8.84
2022-10-04T05:49:19.207Z,8.91
2022-10-04T05:50:14.442Z,8.91
2022-10-04T05:51:14.421Z,8.91
2022-10-04T05:52:14.318Z,8.91
2022-10-04T05:53:14.256Z,8.81
2022-10-04T05:54:14.196Z,8.81
2022-10-04T05:55:14.162Z,8.76
2022-10-04T05:56:14.085Z,8.91
2022-10-04T05:57:14.030Z,8.76
2022-10-04T05:58:13.974Z,8.79
2022-10-04T05:59:13.919Z,8.87
2022-10-04T06:00:13.889Z,8.78
2022-10-04T06:01:13.831Z,8.91
2022-10-04T06:02:13.765Z,8.81
2022-10-04T06:03:13.697Z,8.87
2022-10-04T06:04:13.643Z,8.88
2022-10-04T06:05:13.585Z,8.91
2022-10-04T06:06:13.563Z,8.91
2022-10-04T06:07:13.473Z,8.85
2022-10-04T06:08:13.416Z,8.97
2022-10-04T06:09:13.359Z,8.88
2022-10-04T06:10:13.302Z,8.94
2022-10-04T06:11:13.266Z,8.88
2022-10-04T06:12:13.193Z,8.99
2022-10-04T06:13:13.140Z,9.02
2022-10-04T06:14:13.081Z,9.00
2022-10-04T06:15:13.025Z,8.99
2022-10-04T06:16:13.044Z,8.89
2022-10-04T06:17:12.918Z,9.00
2022-10-04T06:18:12.857Z,8.99
2022-10-04T06:19:12.800Z,8.99
2022-10-04T06:20:12.745Z,9.04
2022-10-04T06:21:12.710Z,9.04
2022-10-04T06:22:12.645Z,8.95
2022-10-04T06:23:12.578Z,8.95
2022-10-04T06:24:12.523Z,8.95
2022-10-04T06:25:12.472Z,8.99
2022-10-04T06:26:12.417Z,8.97
2022-10-04T06:27:12.369Z,9.00
2022-10-04T06:28:12.319Z,8.94
2022-10-04T06:29:12.242Z,9.00
2022-10-04T06:30:12.186Z,8.95
2022-10-04T06:31:12.172Z,8.95
2022-10-04T06:32:12.100Z,8.99
2022-10-04T06:33:12.019Z,8.94
2022-10-04T06:34:11.963Z,8.97
2022-10-04T06:35:11.907Z,8.95
2022-10-04T06:36:11.855Z,8.94
2022-10-04T06:37:11.825Z,9.00
2022-10-04T06:38:11.836Z,8.95
2022-10-04T06:39:11.686Z,9.04
2022-10-04T06:40:11.628Z,9.00
2022-10-04T06:41:11.570Z,9.10
2022-10-04T06:42:11.520Z,9.13
2022-10-04T06:43:11.491Z,9.11
2022-10-04T06:44:11.405Z,9.18
2022-10-04T06:45:11.349Z,9.21
2022-10-04T06:46:11.467Z,9.23
2022-10-04T06:47:11.237Z,9.34
2022-10-04T06:48:11.182Z,9.22
2022-10-04T06:49:11.146Z,9.32
2022-10-04T06:50:11.067Z,9.37
2022-10-04T06:51:11.016Z,9.37
2022-10-04T06:52:12.704Z,9.31
2022-10-04T06:53:10.903Z,9.23
2022-10-04T06:54:10.877Z,9.36
2022-10-04T06:55:10.794Z,9.43
2022-10-04T06:56:10.739Z,9.40
2022-10-04T06:57:10.681Z,9.40
2022-10-04T06:58:10.631Z,9.46
2022-10-04T06:59:10.570Z,9.50
2022-10-04T07:00:10.549Z,9.50
2022-10-04T07:01:10.492Z,9.55
2022-10-04T07:02:10.458Z,9.72
2022-10-04T07:03:10.348Z,9.55
2022-10-04T07:04:10.293Z,9.69
2022-10-04T07:05:10.257Z,9.66
2022-10-04T07:06:10.205Z,9.62
2022-10-04T07:07:10.127Z,9.65
2022-10-04T07:08:10.068Z,9.69
2022-10-04T07:09:10.013Z,9.72
2022-10-04T07:10:10.076Z,9.65
2022-10-04T07:11:12.339Z,9.68
2022-10-04T07:12:09.863Z,9.69
2022-10-04T07:13:09.792Z,9.72
2022-10-04T07:14:09.737Z,9.69
2022-10-04T07:15:09.683Z,9.66
2022-10-04T07:16:09.775Z,9.66
2022-10-04T07:17:09.590Z,9.72
2022-10-04T07:18:09.521Z,9.77
2022-10-04T07:19:09.460Z,9.77
2022-10-04T07:20:09.403Z,9.83
2022-10-04T07:21:09.347Z,9.82
2022-10-04T07:22:09.313Z,9.83
2022-10-04T07:23:09.237Z,9.83
2022-10-04T07:24:09.208Z,9.86
2022-10-04T07:25:09.124Z,9.86
2022-10-04T07:26:09.073Z,9.84
2022-10-04T07:27:09.044Z,9.87
2022-10-04T07:28:09.006Z,9.95
2022-10-04T07:29:08.905Z,9.87
2022-10-04T07:30:08.849Z,9.94
2022-10-04T07:31:08.881Z,10.07
2022-10-04T07:32:08.743Z,10.09
2022-10-04T07:33:08.704Z,10.09
2022-10-04T07:34:08.626Z,10.13
2022-10-04T07:35:08.573Z,10.04
2022-10-04T07:36:08.516Z,10.16
2022-10-04T07:37:08.464Z,10.17
2022-10-04T07:38:08.427Z,10.28
2022-10-04T07:39:08.352Z,10.25
2022-10-04T07:40:08.299Z,10.25
2022-10-04T07:41:08.251Z,10.25
2022-10-04T07:42:08.197Z,10.25
2022-10-04T07:43:08.154Z,10.35
2022-10-04T07:44:08.087Z,10.37
2022-10-04T07:45:08.019Z,10.49
2022-10-04T07:46:08.079Z,10.40
2022-10-04T07:47:07.910Z,10.51
2022-10-04T07:48:07.856Z,10.51
2022-10-04T07:49:07.816Z,10.60
2022-10-04T07:50:07.746Z,10.59
2022-10-04T07:51:07.692Z,10.63
2022-10-04T07:52:07.636Z,10.61
2022-10-04T07:53:09.701Z,10.61
2022-10-04T07:54:07.542Z,10.81
2022-10-04T07:55:07.474Z,10.75
2022-10-04T07:56:07.430Z,10.82
2022-10-04T07:57:07.363Z,10.94
2022-10-04T07:58:07.334Z,10.99
2022-10-04T07:59:07.335Z,11.17
2022-10-04T08:00:07.202Z,11.27
2022-10-04T08:01:07.144Z,11.25
2022-10-04T08:02:07.393Z,11.40
2022-10-04T08:03:07.116Z,11.48
2022-10-04T08:04:06.998Z,11.54
2022-10-04T08:05:06.927Z,11.52
2022-10-04T08:06:06.873Z,11.55
2022-10-04T08:07:06.818Z,11.60
2022-10-04T08:08:06.768Z,11.72
2022-10-04T08:09:06.732Z,11.70
2022-10-04T08:10:06.659Z,11.81
2022-10-04T08:11:06.604Z,11.83
2022-10-04T08:12:06.547Z,11.87
2022-10-04T08:13:06.496Z,11.99
2022-10-04T08:14:06.488Z,11.94
2022-10-04T08:15:06.415Z,12.06
2022-10-04T08:16:06.367Z,12.07
2022-10-04T08:17:06.291Z,12.21
2022-10-04T08:18:06.255Z,12.50
2022-10-04T08:19:06.750Z,12.90
2022-10-04T08:20:06.160Z,13.28
2022-10-04T08:21:06.073Z,13.42
2022-10-04T08:22:06.016Z,13.31
2022-10-04T08:23:05.967Z,13.54
2022-10-04T08:24:05.910Z,13.53
2022-10-04T08:25:05.887Z,13.74
2022-10-04T08:26:05.808Z,13.90
2022-10-04T08:27:05.760Z,14.53
2022-10-04T08:28:05.776Z,15.15
2022-10-04T08:29:05.654Z,15.82
2022-10-04T08:30:05.694Z,16.32
2022-10-04T08:31:05.669Z,16.00
2022-10-04T08:32:05.723Z,15.75
2022-10-04T08:33:05.449Z,15.37
2022-10-04T08:34:05.399Z,15.27
2022-10-04T08:35:05.351Z,15.11
2022-10-04T08:36:05.323Z,14.91
2022-10-04T08:37:05.251Z,14.72
2022-10-04T08:38:05.205Z,14.65
2022-10-04T08:39:05.151Z,14.50
2022-10-04T08:40:07.711Z,14.51
2022-10-04T08:41:05.053Z,14.79
2022-10-04T08:42:05.029Z,14.84
2022-10-04T08:43:04.957Z,14.73
2022-10-04T08:44:04.910Z,14.81
2022-10-04T08:45:04.852Z,15.02
2022-10-04T08:46:04.817Z,15.28
2022-10-04T08:47:04.751Z,15.49
2022-10-04T08:48:04.728Z,15.75
2022-10-04T08:49:04.651Z,15.76
2022-10-04T08:50:04.607Z,15.79
2022-10-04T08:51:04.555Z,16.00
2022-10-04T08:52:04.504Z,16.13
2022-10-04T08:53:08.716Z,16.57
2022-10-04T08:54:04.433Z,16.91
2022-10-04T08:55:04.360Z,17.14
2022-10-04T08:56:04.308Z,17.30
2022-10-04T08:57:04.255Z,17.30
2022-10-04T08:58:04.208Z,17.60
2022-10-04T08:59:04.160Z,17.94
2022-10-04T09:00:04.158Z,18.23
2022-10-04T09:01:04.154Z,18.45
2022-10-04T09:02:04.014Z,18.52
2022-10-04T09:03:04.030Z,18.38
2022-10-04T09:04:03.919Z,18.31
2022-10-04T09:05:03.873Z,18.60
2022-10-04T09:06:03.866Z,18.90
2022-10-04T09:07:03.783Z,19.09
2022-10-04T09:08:03.732Z,19.29
2022-10-04T09:09:03.682Z,19.26
2022-10-04T09:10:03.641Z,18.99
2022-10-04T09:11:03.614Z,19.00
2022-10-04T09:12:03.542Z,19.29
2022-10-04T09:13:03.498Z,18.75
2022-10-04T09:14:03.450Z,18.38
2022-10-04T09:15:03.404Z,18.13
2022-10-04T09:16:03.534Z,18.44
2022-10-04T09:17:03.313Z,18.60
2022-10-04T09:18:03.270Z,18.31
2022-10-04T09:19:03.217Z,18.29
2022-10-04T09:20:20.014Z,18.62
2022-10-04T09:21:03.135Z,18.62
2022-10-04T09:22:03.106Z,18.28
2022-10-04T09:23:06.425Z,17.74
2022-10-04T09:24:02.984Z,17.54
2022-10-04T09:25:02.937Z,17.72
2022-10-04T09:26:02.895Z,18.03
2022-10-04T09:27:02.846Z,18.15
2022-10-04T09:28:02.877Z,17.98
2022-10-04T09:29:05.129Z,18.01
2022-10-04T09:30:02.705Z,17.85
2022-10-04T09:31:02.692Z,17.83
2022-10-04T09:32:02.612Z,18.03
2022-10-04T09:33:02.581Z,17.97
2022-10-04T09:34:02.524Z,17.78
2022-10-04T09:35:02.468Z,18.22
2022-10-04T09:36:02.422Z,18.70
2022-10-04T09:37:02.387Z,18.43
2022-10-04T09:38:02.353Z,18.58
2022-10-04T09:40:16.664Z,19.26
2022-10-04T09:41:16.613Z,18.96
2022-10-04T09:42:16.584Z,18.58
2022-10-04T09:43:16.540Z,18.93
2022-10-04T09:44:16.474Z,18.99
2022-10-04T09:45:16.426Z,18.98
2022-10-04T09:46:16.397Z,19.14
2022-10-04T09:47:16.377Z,18.65
2022-10-04T09:48:16.280Z,18.26
2022-10-04T09:49:16.291Z,17.72
2022-10-04T09:50:16.183Z,17.57
2022-10-04T09:51:16.134Z,17.83
2022-10-04T09:52:16.087Z,17.74
2022-10-04T09:53:16.041Z,17.68
2022-10-04T09:54:15.992Z,17.51
2022-10-04T09:55:16.003Z,17.60
2022-10-04T09:56:15.897Z,17.74
2022-10-04T09:57:15.858Z,17.87
2022-10-04T09:58:15.804Z,18.01
2022-10-04T09:59:15.757Z,18.19
2022-10-04T10:00:15.706Z,18.60
2022-10-04T10:01:15.773Z,18.43
2022-10-04T10:02:15.607Z,18.81
2022-10-04T10:03:16.201Z,18.95
2022-10-04T10:04:30.347Z,19.12
2022-10-04T10:05:15.465Z,18.45
2022-10-04T10:06:15.458Z,17.95
2022-10-04T10:07:15.369Z,17.70
2022-10-04T10:08:15.343Z,18.04
2022-10-04T10:09:15.274Z,17.64
2022-10-04T10:10:15.222Z,17.92
2022-10-04T10:11:15.202Z,18.16
2022-10-04T10:12:15.127Z,17.97
2022-10-04T10:13:15.086Z,17.78
2022-10-04T10:14:15.036Z,17.98
2022-10-04T10:15:14.986Z,17.89
2022-10-04T10:16:14.984Z,18.20
2022-10-04T10:17:14.924Z,18.49
2022-10-04T10:18:14.833Z,18.28
2022-10-04T10:19:14.790Z,17.49
2022-10-04T10:20:14.738Z,17.41
2022-10-04T10:21:14.687Z,17.30
2022-10-04T10:22:14.637Z,17.15
2022-10-04T10:23:14.623Z,16.57
2022-10-04T10:24:14.543Z,16.53
2022-10-04T10:25:14.494Z,16.28
2022-10-04T10:26:14.445Z,16.02
2022-10-04T10:27:14.414Z,15.76
2022-10-04T10:28:14.401Z,15.58
2022-10-04T10:29:14.322Z,15.72
2022-10-04T10:30:14.248Z,15.59
2022-10-04T10:31:14.341Z,15.61
2022-10-04T10:32:14.152Z,15.94
2022-10-04T10:33:14.102Z,16.24
2022-10-04T10:34:14.049Z,16.33
2022-10-04T10:35:14.031Z,16.68
2022-10-04T10:36:13.954Z,16.39
2022-10-04T10:37:13.904Z,16.35
2022-10-04T10:38:13.855Z,16.21
2022-10-04T10:39:13.856Z,16.36
2022-10-04T10:40:13.755Z,16.50
2022-10-04T10:41:13.725Z,16.64
2022-10-04T10:42:13.660Z,16.93
2022-10-04T10:43:13.611Z,17.12
2022-10-04T10:44:13.561Z,17.20
2022-10-04T10:45:13.507Z,17.34
2022-10-04T10:46:13.559Z,17.65
2022-10-04T10:47:13.410Z,17.41
2022-10-04T10:48:13.382Z,17.24
2022-10-04T10:49:13.309Z,17.14
2022-10-04T10:50:13.263Z,16.72
2022-10-04T10:51:13.216Z,16.35
2022-10-04T10:52:13.202Z,16.36
2022-10-04T10:53:13.115Z,16.29
2022-10-04T10:54:13.065Z,16.15
2022-10-04T10:55:13.016Z,16.29
2022-10-04T10:56:12.966Z,16.26
2022-10-04T10:57:12.920Z,16.28
2022-10-04T10:58:12.887Z,16.57
2022-10-04T10:59:12.815Z,16.35
2022-10-04T11:00:12.780Z,16.26
2022-10-04T11:01:12.720Z,16.13
2022-10-04T11:02:12.745Z,16.00
2022-10-04T11:03:14.603Z,15.90
2022-10-04T11:04:12.589Z,16.16
2022-10-04T11:05:12.528Z,16.29
2022-10-04T11:06:12.471Z,16.17
2022-10-04T11:07:12.424Z,16.39
2022-10-04T11:08:12.372Z,16.74
2022-10-04T11:09:12.340Z,16.50
2022-10-04T11:10:12.283Z,16.32
2022-10-04T11:11:12.235Z,16.56
2022-10-04T11:12:12.175Z,16.93
2022-10-04T11:13:12.128Z,16.89
2022-10-04T11:14:12.099Z,16.64
2022-10-04T11:15:12.054Z,16.60
2022-10-04T11:16:12.052Z,16.87
2022-10-04T11:17:11.922Z,17.30
2022-10-04T11:18:11.874Z,17.46
2022-10-04T11:19:11.828Z,17.20
2022-10-04T11:20:11.800Z,17.16
2022-10-04T11:21:11.725Z,17.44
2022-10-04T11:22:11.676Z,17.27
2022-10-04T11:23:11.643Z,17.24
2022-10-04T11:24:11.578Z,17.26
2022-10-04T11:25:11.537Z,17.41
2022-10-04T11:26:11.496Z,17.90
2022-10-04T11:27:11.430Z,18.43
2022-10-04T11:28:11.450Z,18.43
2022-10-04T11:29:11.330Z,18.34
2022-10-04T11:30:11.278Z,18.49
2022-10-04T11:31:11.324Z,18.75
2022-10-04T11:32:11.184Z,18.99
2022-10-04T11:33:11.136Z,19.29
2022-10-04T11:34:15.708Z,19.55
2022-10-04T11:35:11.035Z,19.37
2022-10-04T11:36:10.997Z,18.74
2022-10-04T11:37:10.977Z,18.56
2022-10-04T11:38:10.889Z,18.15
2022-10-04T11:39:10.838Z,17.98
2022-10-04T11:40:10.938Z,17.70
2022-10-04T11:41:10.743Z,17.74
2022-10-04T11:42:10.701Z,17.87
2022-10-04T11:43:10.663Z,18.03
2022-10-04T11:44:10.597Z,18.08
2022-10-04T11:45:10.551Z,17.70
2022-10-04T11:46:11.175Z,17.71
2022-10-04T11:47:10.483Z,18.01
2022-10-04T11:48:10.421Z,18.37
2022-10-04T11:49:10.922Z,18.60
2022-10-04T11:50:10.302Z,18.45
2022-10-04T11:51:10.255Z,18.29
2022-10-04T11:52:10.208Z,18.23
2022-10-04T11:53:10.183Z,18.23
2022-10-04T11:54:10.108Z,17.97
2022-10-04T11:55:10.059Z,17.90
2022-10-04T11:56:10.010Z,17.86
2022-10-04T11:57:09.962Z,17.65
2022-10-04T11:58:12.176Z,17.33
2022-10-04T11:59:09.885Z,17.31
2022-10-04T12:00:09.818Z,17.19
2022-10-04T12:01:09.767Z,17.23
2022-10-04T12:02:09.719Z,17.49
2022-10-04T12:03:09.718Z,17.74
2022-10-04T12:04:09.771Z,17.54
2022-10-04T12:05:09.572Z,17.72
2022-10-04T12:06:09.523Z,17.86
2022-10-04T12:07:09.478Z,17.97
2022-10-04T12:08:09.425Z,18.08
2022-10-04T12:09:09.376Z,18.40
2022-10-04T12:10:09.382Z,18.41
2022-10-04T12:11:09.284Z,18.19
2022-10-04T12:12:09.232Z,18.05
2022-10-04T12:13:09.183Z,18.38
2022-10-04T12:14:09.151Z,18.35
2022-10-04T12:15:09.092Z,18.52
2022-10-04T12:16:09.150Z,18.75
2022-10-04T12:17:08.988Z,18.89
2022-10-04T12:18:08.937Z,18.81
2022-10-04T12:19:08.887Z,18.63
2022-10-04T12:20:12.182Z,18.43
2022-10-04T12:21:08.794Z,18.26
2022-10-04T12:22:08.766Z,18.10
2022-10-04T12:23:08.692Z,18.00
2022-10-04T12:24:08.645Z,18.03
2022-10-04T12:25:08.601Z,18.08
2022-10-04T12:26:08.548Z,17.68
2022-10-04T12:27:08.503Z,17.46
2022-10-04T12:28:08.573Z,17.56
2022-10-04T12:29:08.401Z,17.44
2022-10-04T12:30:08.359Z,17.85
2022-10-04T12:31:08.349Z,18.15
2022-10-04T12:32:08.254Z,18.33
2022-10-04T12:33:08.226Z,18.19
2022-10-04T12:34:08.156Z,18.37
2022-10-04T12:35:08.111Z,18.53
2022-10-04T12:36:08.061Z,18.58
2022-10-04T12:37:08.020Z,19.09
2022-10-04T12:38:07.988Z,18.92
2022-10-04T12:39:07.912Z,18.49
2022-10-04T12:40:07.866Z,18.16
2022-10-04T12:41:07.817Z,17.79
2022-10-04T12:42:07.769Z,17.86
2022-10-04T12:43:07.719Z,17.65
2022-10-04T12:44:07.696Z,17.64
2022-10-04T12:45:07.629Z,17.52
2022-10-04T12:46:07.648Z,17.59
2022-10-04T12:47:07.525Z,17.86
2022-10-04T12:48:07.476Z,18.31
2022-10-04T12:49:07.426Z,18.62
2022-10-04T12:50:07.403Z,18.71
2022-10-04T12:51:07.329Z,18.89
2022-10-04T12:52:07.281Z,19.14
2022-10-04T12:53:07.239Z,19.16
2022-10-04T12:54:07.184Z,19.51
2022-10-04T12:55:07.134Z,19.77
2022-10-04T12:56:07.104Z,19.91
2022-10-04T12:57:07.039Z,20.11
2022-10-04T12:58:07.018Z,20.09
2022-10-04T12:59:06.941Z,20.31
2022-10-04T13:00:06.890Z,20.41
2022-10-04T13:01:06.942Z,19.84
2022-10-04T13:02:06.827Z,19.63
2022-10-04T13:03:06.749Z,19.41
2022-10-04T13:04:06.704Z,19.26
2022-10-04T13:05:06.649Z,19.31
2022-10-04T13:06:06.604Z,19.14
2022-10-04T13:07:06.591Z,18.99
2022-10-04T13:08:06.505Z,18.78